sensor_id;sensor_type;location;lat;lon;timestamp;P1;durP1;ratioP1;P2;durP2;ratioP2
45254;SDS011;30989;52.078;21.014;2023-03-22T00:00:48;53.95;;;25.13;;
45254;SDS011;30989;52.078;21.014;2023-03-22T00:03:13;57.50;;;26.05;;
45254;SDS011;30989;52.078;21.014;2023-03-22T00:05:39;55.95;;;25.98;;
45254;SDS011;30989;52.078;21.014;2023-03-22T00:08:05;59.63;;;27.73;;
45254;SDS011;30989;52.078;21.014;2023-03-22T00:10:31;59.83;;;28.98;;
45254;SDS011;30989;52.078;21.014;2023-03-22T00:12:57;59.05;;;26.88;;
45254;SDS011;30989;52.078;21.014;2023-03-22T00:15:23;56.78;;;26.80;;
45254;SDS011;30989;52.078;21.014;2023-03-22T00:17:49;59.40;;;27.38;;
45254;SDS011;30989;52.078;21.014;2023-03-22T00:20:14;60.80;;;27.98;;
45254;SDS011;30989;52.078;21.014;2023-03-22T00:22:42;62.10;;;27.75;;
45254;SDS011;30989;52.078;21.014;2023-03-22T00:25:08;55.55;;;24.77;;
45254;SDS011;30989;52.078;21.014;2023-03-22T00:27:34;58.05;;;27.23;;
45254;SDS011;30989;52.078;21.014;2023-03-22T00:30:00;63.20;;;29.10;;
45254;SDS011;30989;52.078;21.014;2023-03-22T00:32:25;62.58;;;26.52;;
45254;SDS011;30989;52.078;21.014;2023-03-22T00:34:51;64.63;;;29.05;;
45254;SDS011;30989;52.078;21.014;2023-03-22T00:37:16;61.88;;;26.45;;
45254;SDS011;30989;52.078;21.014;2023-03-22T00:39:46;58.05;;;25.20;;
45254;SDS011;30989;52.078;21.014;2023-03-22T00:42:11;52.65;;;25.50;;
45254;SDS011;30989;52.078;21.014;2023-03-22T00:44:38;61.83;;;26.45;;
45254;SDS011;30989;52.078;21.014;2023-03-22T00:47:05;54.75;;;24.98;;
45254;SDS011;30989;52.078;21.014;2023-03-22T00:49:30;63.28;;;27.40;;
45254;SDS011;30989;52.078;21.014;2023-03-22T00:51:55;57.08;;;24.73;;
45254;SDS011;30989;52.078;21.014;2023-03-22T00:54:21;53.17;;;26.55;;
45254;SDS011;30989;52.078;21.014;2023-03-22T00:56:46;55.67;;;25.42;;
45254;SDS011;30989;52.078;21.014;2023-03-22T00:59:14;60.25;;;25.73;;
45254;SDS011;30989;52.078;21.014;2023-03-22T01:01:41;58.92;;;26.52;;
45254;SDS011;30989;52.078;21.014;2023-03-22T01:04:07;56.67;;;26.85;;
45254;SDS011;30989;52.078;21.014;2023-03-22T01:06:33;56.22;;;26.02;;
45254;SDS011;30989;52.078;21.014;2023-03-22T01:08:59;54.60;;;25.25;;
45254;SDS011;30989;52.078;21.014;2023-03-22T01:11:25;52.50;;;25.05;;
45254;SDS011;30989;52.078;21.014;2023-03-22T01:13:52;58.35;;;25.88;;
45254;SDS011;30989;52.078;21.014;2023-03-22T01:16:18;60.90;;;26.52;;
45254;SDS011;30989;52.078;21.014;2023-03-22T01:18:45;53.25;;;25.15;;
45254;SDS011;30989;52.078;21.014;2023-03-22T01:21:11;54.38;;;25.23;;
45254;SDS011;30989;52.078;21.014;2023-03-22T01:23:37;54.03;;;23.65;;
45254;SDS011;30989;52.078;21.014;2023-03-22T01:26:03;56.03;;;25.38;;
45254;SDS011;30989;52.078;21.014;2023-03-22T01:28:29;54.70;;;25.45;;
45254;SDS011;30989;52.078;21.014;2023-03-22T01:30:55;55.25;;;25.52;;
45254;SDS011;30989;52.078;21.014;2023-03-22T01:33:25;53.10;;;23.30;;
45254;SDS011;30989;52.078;21.014;2023-03-22T01:35:51;58.15;;;26.90;;
45254;SDS011;30989;52.078;21.014;2023-03-22T01:38:17;60.08;;;25.48;;
45254;SDS011;30989;52.078;21.014;2023-03-22T01:40:51;54.45;;;24.92;;
45254;SDS011;30989;52.078;21.014;2023-03-22T01:43:17;56.42;;;23.92;;
45254;SDS011;30989;52.078;21.014;2023-03-22T01:45:49;52.83;;;24.88;;
45254;SDS011;30989;52.078;21.014;2023-03-22T01:48:18;52.17;;;23.55;;
45254;SDS011;30989;52.078;21.014;2023-03-22T01:50:56;41.47;;;18.77;;
45254;SDS011;30989;52.078;21.014;2023-03-22T01:53:28;49.50;;;25.15;;
45254;SDS011;30989;52.078;21.014;2023-03-22T01:55:57;57.20;;;24.58;;
45254;SDS011;30989;52.078;21.014;2023-03-22T01:58:28;49.05;;;22.92;;
45254;SDS011;30989;52.078;21.014;2023-03-22T02:00:57;53.85;;;24.15;;
45254;SDS011;30989;52.078;21.014;2023-03-22T02:06:31;57.42;;;24.17;;
45254;SDS011;30989;52.078;21.014;2023-03-22T02:09:07;55.40;;;24.05;;
45254;SDS011;30989;52.078;21.014;2023-03-22T02:11:36;59.05;;;25.88;;
45254;SDS011;30989;52.078;21.014;2023-03-22T02:23:25;53.63;;;25.80;;
45254;SDS011;30989;52.078;21.014;2023-03-22T02:36:45;57.78;;;25.33;;
45254;SDS011;30989;52.078;21.014;2023-03-22T02:39:47;61.33;;;24.45;;
45254;SDS011;30989;52.078;21.014;2023-03-22T02:50:38;65.50;;;27.90;;
45254;SDS011;30989;52.078;21.014;2023-03-22T02:53:15;57.97;;;29.00;;
45254;SDS011;30989;52.078;21.014;2023-03-22T03:00:53;61.83;;;26.05;;
45254;SDS011;30989;52.078;21.014;2023-03-22T03:03:21;57.97;;;25.63;;
45254;SDS011;30989;52.078;21.014;2023-03-22T03:05:55;57.58;;;27.67;;
45254;SDS011;30989;52.078;21.014;2023-03-22T03:08:25;71.78;;;30.10;;
45254;SDS011;30989;52.078;21.014;2023-03-22T03:10:53;62.33;;;29.13;;
45254;SDS011;30989;52.078;21.014;2023-03-22T03:13:19;60.05;;;28.98;;
45254;SDS011;30989;52.078;21.014;2023-03-22T03:15:50;63.78;;;29.77;;
45254;SDS011;30989;52.078;21.014;2023-03-22T03:26:13;54.92;;;27.23;;
45254;SDS011;30989;52.078;21.014;2023-03-22T03:31:40;65.35;;;28.80;;
45254;SDS011;30989;52.078;21.014;2023-03-22T03:36:58;54.20;;;25.67;;
45254;SDS011;30989;52.078;21.014;2023-03-22T03:39:34;54.42;;;25.67;;
45254;SDS011;30989;52.078;21.014;2023-03-22T03:42:10;50.80;;;25.70;;
45254;SDS011;30989;52.078;21.014;2023-03-22T03:44:39;55.00;;;25.00;;
45254;SDS011;30989;52.078;21.014;2023-03-22T03:47:05;62.53;;;26.58;;
45254;SDS011;30989;52.078;21.014;2023-03-22T03:49:32;49.95;;;25.52;;
45254;SDS011;30989;52.078;21.014;2023-03-22T03:51:59;56.30;;;26.40;;
45254;SDS011;30989;52.078;21.014;2023-03-22T03:54:25;61.83;;;27.25;;
45254;SDS011;30989;52.078;21.014;2023-03-22T03:56:51;54.80;;;24.13;;
45254;SDS011;30989;52.078;21.014;2023-03-22T03:59:18;53.95;;;23.35;;
45254;SDS011;30989;52.078;21.014;2023-03-22T04:01:47;56.67;;;25.83;;
45254;SDS011;30989;52.078;21.014;2023-03-22T04:04:21;59.35;;;25.38;;
45254;SDS011;30989;52.078;21.014;2023-03-22T04:06:56;54.55;;;24.98;;
45254;SDS011;30989;52.078;21.014;2023-03-22T04:09:30;49.08;;;23.10;;
45254;SDS011;30989;52.078;21.014;2023-03-22T04:12:07;52.20;;;23.42;;
45254;SDS011;30989;52.078;21.014;2023-03-22T04:14:36;50.03;;;22.73;;
45254;SDS011;30989;52.078;21.014;2023-03-22T04:17:09;58.75;;;26.05;;
45254;SDS011;30989;52.078;21.014;2023-03-22T04:19:35;56.70;;;26.20;;
45254;SDS011;30989;52.078;21.014;2023-03-22T04:22:01;54.15;;;22.88;;
45254;SDS011;30989;52.078;21.014;2023-03-22T04:24:29;53.45;;;26.30;;
45254;SDS011;30989;52.078;21.014;2023-03-22T04:26:54;49.08;;;22.70;;
45254;SDS011;30989;52.078;21.014;2023-03-22T04:29:23;51.03;;;24.00;;
45254;SDS011;30989;52.078;21.014;2023-03-22T04:31:53;56.95;;;24.55;;
45254;SDS011;30989;52.078;21.014;2023-03-22T04:34:30;55.97;;;23.90;;
45254;SDS011;30989;52.078;21.014;2023-03-22T04:36:59;56.13;;;22.42;;
45254;SDS011;30989;52.078;21.014;2023-03-22T04:39:31;44.20;;;19.92;;
45254;SDS011;30989;52.078;21.014;2023-03-22T04:42:12;39.90;;;20.13;;
45254;SDS011;30989;52.078;21.014;2023-03-22T04:44:38;45.80;;;21.50;;
45254;SDS011;30989;52.078;21.014;2023-03-22T04:47:04;42.78;;;19.00;;
45254;SDS011;30989;52.078;21.014;2023-03-22T04:49:29;41.65;;;21.67;;
45254;SDS011;30989;52.078;21.014;2023-03-22T04:51:55;44.13;;;20.95;;
45254;SDS011;30989;52.078;21.014;2023-03-22T04:54:31;44.15;;;20.00;;
45254;SDS011;30989;52.078;21.014;2023-03-22T04:56:57;47.38;;;20.55;;
45254;SDS011;30989;52.078;21.014;2023-03-22T04:59:24;45.42;;;21.70;;
45254;SDS011;30989;52.078;21.014;2023-03-22T05:01:50;44.28;;;19.45;;
45254;SDS011;30989;52.078;21.014;2023-03-22T05:04:19;47.10;;;20.17;;
45254;SDS011;30989;52.078;21.014;2023-03-22T05:06:48;41.92;;;18.40;;
45254;SDS011;30989;52.078;21.014;2023-03-22T05:09:20;43.78;;;18.75;;
45254;SDS011;30989;52.078;21.014;2023-03-22T05:11:46;35.45;;;18.77;;
45254;SDS011;30989;52.078;21.014;2023-03-22T05:14:26;42.40;;;19.58;;
45254;SDS011;30989;52.078;21.014;2023-03-22T05:16:51;38.33;;;18.58;;
45254;SDS011;30989;52.078;21.014;2023-03-22T05:19:17;41.22;;;16.88;;
45254;SDS011;30989;52.078;21.014;2023-03-22T05:21:48;32.50;;;17.15;;
45254;SDS011;30989;52.078;21.014;2023-03-22T05:24:13;33.63;;;16.88;;
45254;SDS011;30989;52.078;21.014;2023-03-22T05:26:42;37.83;;;17.42;;
45254;SDS011;30989;52.078;21.014;2023-03-22T05:29:10;37.67;;;18.60;;
45254;SDS011;30989;52.078;21.014;2023-03-22T05:31:47;40.08;;;18.52;;
45254;SDS011;30989;52.078;21.014;2023-03-22T05:34:13;36.10;;;16.75;;
45254;SDS011;30989;52.078;21.014;2023-03-22T05:36:40;34.03;;;16.20;;
45254;SDS011;30989;52.078;21.014;2023-03-22T05:39:14;35.00;;;16.67;;
45254;SDS011;30989;52.078;21.014;2023-03-22T05:41:40;34.88;;;18.25;;
45254;SDS011;30989;52.078;21.014;2023-03-22T05:44:06;36.30;;;16.90;;
45254;SDS011;30989;52.078;21.014;2023-03-22T05:46:34;37.35;;;17.90;;
45254;SDS011;30989;52.078;21.014;2023-03-22T05:49:29;38.65;;;18.13;;
45254;SDS011;30989;52.078;21.014;2023-03-22T05:51:56;35.35;;;17.80;;
45254;SDS011;30989;52.078;21.014;2023-03-22T05:54:25;34.95;;;16.30;;
45254;SDS011;30989;52.078;21.014;2023-03-22T05:56:51;35.80;;;16.38;;
45254;SDS011;30989;52.078;21.014;2023-03-22T05:59:17;36.97;;;16.98;;
45254;SDS011;30989;52.078;21.014;2023-03-22T06:01:42;37.72;;;17.92;;
45254;SDS011;30989;52.078;21.014;2023-03-22T06:04:16;31.95;;;17.13;;
45254;SDS011;30989;52.078;21.014;2023-03-22T06:07:15;30.75;;;15.63;;
45254;SDS011;30989;52.078;21.014;2023-03-22T06:09:48;32.15;;;15.50;;
45254;SDS011;30989;52.078;21.014;2023-03-22T06:12:17;30.10;;;14.75;;
45254;SDS011;30989;52.078;21.014;2023-03-22T06:14:50;33.70;;;15.40;;
45254;SDS011;30989;52.078;21.014;2023-03-22T06:17:36;34.15;;;16.55;;
45254;SDS011;30989;52.078;21.014;2023-03-22T06:20:05;34.50;;;17.10;;
45254;SDS011;30989;52.078;21.014;2023-03-22T06:22:36;29.70;;;15.07;;
45254;SDS011;30989;52.078;21.014;2023-03-22T06:25:02;35.25;;;14.50;;
45254;SDS011;30989;52.078;21.014;2023-03-22T06:27:35;32.33;;;15.98;;
45254;SDS011;30989;52.078;21.014;2023-03-22T06:30:00;32.22;;;15.45;;
45254;SDS011;30989;52.078;21.014;2023-03-22T06:32:26;27.13;;;14.38;;
45254;SDS011;30989;52.078;21.014;2023-03-22T06:34:53;27.38;;;13.27;;
45254;SDS011;30989;52.078;21.014;2023-03-22T06:37:21;31.98;;;15.57;;
45254;SDS011;30989;52.078;21.014;2023-03-22T06:39:47;43.05;;;19.70;;
45254;SDS011;30989;52.078;21.014;2023-03-22T06:42:13;28.45;;;13.43;;
45254;SDS011;30989;52.078;21.014;2023-03-22T06:44:39;22.63;;;12.68;;
45254;SDS011;30989;52.078;21.014;2023-03-22T06:47:13;28.33;;;11.82;;
45254;SDS011;30989;52.078;21.014;2023-03-22T06:50:10;25.40;;;12.43;;
45254;SDS011;30989;52.078;21.014;2023-03-22T06:52:55;25.60;;;12.93;;
45254;SDS011;30989;52.078;21.014;2023-03-22T06:55:20;23.42;;;12.30;;
45254;SDS011;30989;52.078;21.014;2023-03-22T06:57:46;20.80;;;11.27;;
45254;SDS011;30989;52.078;21.014;2023-03-22T07:00:12;23.10;;;11.35;;
45254;SDS011;30989;52.078;21.014;2023-03-22T07:02:38;22.80;;;12.00;;
45254;SDS011;30989;52.078;21.014;2023-03-22T07:05:29;23.17;;;10.13;;
45254;SDS011;30989;52.078;21.014;2023-03-22T07:07:55;21.33;;;10.48;;
45254;SDS011;30989;52.078;21.014;2023-03-22T07:10:21;23.13;;;12.02;;
45254;SDS011;30989;52.078;21.014;2023-03-22T07:12:48;22.38;;;11.05;;
45254;SDS011;30989;52.078;21.014;2023-03-22T07:15:15;19.38;;;10.43;;
45254;SDS011;30989;52.078;21.014;2023-03-22T07:17:58;24.25;;;10.95;;
45254;SDS011;30989;52.078;21.014;2023-03-22T07:20:27;18.10;;;9.75;;
45254;SDS011;30989;52.078;21.014;2023-03-22T07:22:54;16.13;;;9.07;;
45254;SDS011;30989;52.078;21.014;2023-03-22T07:25:22;19.13;;;10.10;;
45254;SDS011;30989;52.078;21.014;2023-03-22T07:27:55;17.85;;;9.45;;
45254;SDS011;30989;52.078;21.014;2023-03-22T07:30:21;14.95;;;8.82;;
45254;SDS011;30989;52.078;21.014;2023-03-22T07:32:47;18.13;;;10.00;;
45254;SDS011;30989;52.078;21.014;2023-03-22T07:35:12;19.73;;;9.73;;
45254;SDS011;30989;52.078;21.014;2023-03-22T07:37:38;17.55;;;9.43;;
45254;SDS011;30989;52.078;21.014;2023-03-22T07:40:13;20.52;;;10.45;;
45254;SDS011;30989;52.078;21.014;2023-03-22T07:42:39;18.83;;;9.80;;
45254;SDS011;30989;52.078;21.014;2023-03-22T07:45:20;27.95;;;12.07;;
45254;SDS011;30989;52.078;21.014;2023-03-22T07:48:13;18.55;;;10.23;;
45254;SDS011;30989;52.078;21.014;2023-03-22T07:51:05;15.77;;;7.93;;
45254;SDS011;30989;52.078;21.014;2023-03-22T07:53:31;19.17;;;9.82;;
45254;SDS011;30989;52.078;21.014;2023-03-22T07:55:56;18.17;;;9.52;;
45254;SDS011;30989;52.078;21.014;2023-03-22T07:58:22;17.52;;;8.55;;
45254;SDS011;30989;52.078;21.014;2023-03-22T08:00:47;20.13;;;9.55;;
45254;SDS011;30989;52.078;21.014;2023-03-22T08:03:45;19.55;;;9.68;;
45254;SDS011;30989;52.078;21.014;2023-03-22T08:06:22;21.27;;;9.95;;
45254;SDS011;30989;52.078;21.014;2023-03-22T08:08:48;18.77;;;8.98;;
45254;SDS011;30989;52.078;21.014;2023-03-22T08:11:13;20.83;;;10.73;;
45254;SDS011;30989;52.078;21.014;2023-03-22T08:13:39;22.23;;;10.10;;
45254;SDS011;30989;52.078;21.014;2023-03-22T08:16:07;15.38;;;9.27;;
45254;SDS011;30989;52.078;21.014;2023-03-22T08:18:33;16.67;;;9.00;;
45254;SDS011;30989;52.078;21.014;2023-03-22T08:20:59;18.52;;;9.98;;
45254;SDS011;30989;52.078;21.014;2023-03-22T08:23:27;19.45;;;10.07;;
45254;SDS011;30989;52.078;21.014;2023-03-22T08:26:13;19.27;;;9.82;;
45254;SDS011;30989;52.078;21.014;2023-03-22T08:28:38;16.67;;;8.23;;
45254;SDS011;30989;52.078;21.014;2023-03-22T08:31:11;19.05;;;8.73;;
45254;SDS011;30989;52.078;21.014;2023-03-22T08:33:38;15.93;;;8.48;;
45254;SDS011;30989;52.078;21.014;2023-03-22T08:36:07;33.90;;;13.63;;
45254;SDS011;30989;52.078;21.014;2023-03-22T08:38:44;19.48;;;9.07;;
45254;SDS011;30989;52.078;21.014;2023-03-22T08:41:11;15.55;;;9.27;;
45254;SDS011;30989;52.078;21.014;2023-03-22T08:43:37;19.55;;;8.95;;
45254;SDS011;30989;52.078;21.014;2023-03-22T08:46:03;14.68;;;8.57;;
45254;SDS011;30989;52.078;21.014;2023-03-22T08:48:29;15.27;;;8.90;;
45254;SDS011;30989;52.078;21.014;2023-03-22T08:51:04;18.33;;;9.32;;
45254;SDS011;30989;52.078;21.014;2023-03-22T08:54:02;19.05;;;9.73;;
45254;SDS011;30989;52.078;21.014;2023-03-22T08:56:47;15.73;;;8.07;;
45254;SDS011;30989;52.078;21.014;2023-03-22T08:59:26;16.23;;;8.70;;
45254;SDS011;30989;52.078;21.014;2023-03-22T09:02:01;15.98;;;8.45;;
45254;SDS011;30989;52.078;21.014;2023-03-22T09:04:27;17.42;;;7.63;;
45254;SDS011;30989;52.078;21.014;2023-03-22T09:06:53;12.23;;;7.20;;
45254;SDS011;30989;52.078;21.014;2023-03-22T09:09:19;17.25;;;9.30;;
45254;SDS011;30989;52.078;21.014;2023-03-22T09:11:48;18.65;;;8.43;;
45254;SDS011;30989;52.078;21.014;2023-03-22T09:14:13;14.23;;;8.65;;
45254;SDS011;30989;52.078;21.014;2023-03-22T09:16:39;18.65;;;9.80;;
45254;SDS011;30989;52.078;21.014;2023-03-22T09:19:04;17.52;;;9.02;;
45254;SDS011;30989;52.078;21.014;2023-03-22T09:21:30;14.98;;;8.52;;
45254;SDS011;30989;52.078;21.014;2023-03-22T09:24:05;19.60;;;9.32;;
45254;SDS011;30989;52.078;21.014;2023-03-22T09:26:42;19.63;;;10.55;;
45254;SDS011;30989;52.078;21.014;2023-03-22T09:29:08;17.45;;;8.73;;
45254;SDS011;30989;52.078;21.014;2023-03-22T09:31:34;17.67;;;8.63;;
45254;SDS011;30989;52.078;21.014;2023-03-22T09:34:12;16.95;;;8.45;;
45254;SDS011;30989;52.078;21.014;2023-03-22T09:36:37;16.45;;;8.68;;
45254;SDS011;30989;52.078;21.014;2023-03-22T09:39:03;15.23;;;7.90;;
45254;SDS011;30989;52.078;21.014;2023-03-22T09:44:07;16.50;;;7.90;;
45254;SDS011;30989;52.078;21.014;2023-03-22T09:46:40;16.85;;;8.75;;
45254;SDS011;30989;52.078;21.014;2023-03-22T09:49:13;17.80;;;8.38;;
45254;SDS011;30989;52.078;21.014;2023-03-22T09:51:44;15.35;;;7.95;;
45254;SDS011;30989;52.078;21.014;2023-03-22T09:54:12;15.07;;;8.57;;
45254;SDS011;30989;52.078;21.014;2023-03-22T09:56:43;26.17;;;12.07;;
45254;SDS011;30989;52.078;21.014;2023-03-22T09:59:24;17.33;;;7.93;;
45254;SDS011;30989;52.078;21.014;2023-03-22T10:01:59;14.77;;;8.15;;
45254;SDS011;30989;52.078;21.014;2023-03-22T10:09:42;17.60;;;9.20;;
45254;SDS011;30989;52.078;21.014;2023-03-22T10:12:21;14.05;;;7.70;;
45254;SDS011;30989;52.078;21.014;2023-03-22T10:17:29;16.17;;;8.23;;
45254;SDS011;30989;52.078;21.014;2023-03-22T10:22:37;22.25;;;7.93;;
45254;SDS011;30989;52.078;21.014;2023-03-22T10:25:07;13.57;;;7.97;;
45254;SDS011;30989;52.078;21.014;2023-03-22T10:27:33;14.85;;;8.05;;
45254;SDS011;30989;52.078;21.014;2023-03-22T10:30:07;15.35;;;8.63;;
45254;SDS011;30989;52.078;21.014;2023-03-22T10:33:01;13.68;;;7.80;;
45254;SDS011;30989;52.078;21.014;2023-03-22T10:35:28;15.68;;;7.93;;
45254;SDS011;30989;52.078;21.014;2023-03-22T10:37:57;18.27;;;8.35;;
45254;SDS011;30989;52.078;21.014;2023-03-22T10:40:27;14.85;;;7.75;;
45254;SDS011;30989;52.078;21.014;2023-03-22T10:43:00;18.23;;;7.45;;
45254;SDS011;30989;52.078;21.014;2023-03-22T10:45:30;14.25;;;7.25;;
45254;SDS011;30989;52.078;21.014;2023-03-22T10:50:50;15.75;;;8.63;;
45254;SDS011;30989;52.078;21.014;2023-03-22T10:55:51;14.75;;;6.85;;
45254;SDS011;30989;52.078;21.014;2023-03-22T10:58:21;13.90;;;6.30;;
45254;SDS011;30989;52.078;21.014;2023-03-22T11:00:52;17.08;;;6.65;;
45254;SDS011;30989;52.078;21.014;2023-03-22T11:03:35;13.20;;;6.90;;
45254;SDS011;30989;52.078;21.014;2023-03-22T11:08:53;11.13;;;5.95;;
45254;SDS011;30989;52.078;21.014;2023-03-22T11:11:46;13.68;;;6.15;;
45254;SDS011;30989;52.078;21.014;2023-03-22T11:17:00;14.70;;;6.57;;
45254;SDS011;30989;52.078;21.014;2023-03-22T11:19:33;13.63;;;6.55;;
45254;SDS011;30989;52.078;21.014;2023-03-22T11:22:01;14.57;;;6.68;;
45254;SDS011;30989;52.078;21.014;2023-03-22T11:24:31;9.82;;;5.68;;
45254;SDS011;30989;52.078;21.014;2023-03-22T11:27:06;13.85;;;6.85;;
45254;SDS011;30989;52.078;21.014;2023-03-22T11:29:44;11.60;;;5.72;;
45254;SDS011;30989;52.078;21.014;2023-03-22T11:32:28;16.30;;;7.20;;
45254;SDS011;30989;52.078;21.014;2023-03-22T11:35:11;15.23;;;7.70;;
45254;SDS011;30989;52.078;21.014;2023-03-22T11:37:42;15.40;;;7.43;;
45254;SDS011;30989;52.078;21.014;2023-03-22T11:40:12;15.30;;;7.50;;
45254;SDS011;30989;52.078;21.014;2023-03-22T11:42:43;14.25;;;7.50;;
45254;SDS011;30989;52.078;21.014;2023-03-22T11:45:14;20.27;;;7.20;;
45254;SDS011;30989;52.078;21.014;2023-03-22T11:47:42;16.70;;;7.50;;
45254;SDS011;30989;52.078;21.014;2023-03-22T11:50:18;13.38;;;6.55;;
45254;SDS011;30989;52.078;21.014;2023-03-22T11:52:55;12.52;;;6.53;;
45254;SDS011;30989;52.078;21.014;2023-03-22T11:55:21;12.68;;;7.07;;
45254;SDS011;30989;52.078;21.014;2023-03-22T11:57:49;13.18;;;6.95;;
45254;SDS011;30989;52.078;21.014;2023-03-22T12:00:17;13.55;;;7.13;;
45254;SDS011;30989;52.078;21.014;2023-03-22T12:02:49;13.27;;;7.13;;
45254;SDS011;30989;52.078;21.014;2023-03-22T12:05:20;14.27;;;7.20;;
45254;SDS011;30989;52.078;21.014;2023-03-22T12:10:49;11.80;;;6.00;;
45254;SDS011;30989;52.078;21.014;2023-03-22T12:13:19;13.40;;;6.43;;
45254;SDS011;30989;52.078;21.014;2023-03-22T12:15:52;12.48;;;6.80;;
45254;SDS011;30989;52.078;21.014;2023-03-22T12:23:23;13.85;;;6.38;;
45254;SDS011;30989;52.078;21.014;2023-03-22T12:25:55;13.70;;;6.60;;
45254;SDS011;30989;52.078;21.014;2023-03-22T12:28:27;11.38;;;5.75;;
45254;SDS011;30989;52.078;21.014;2023-03-22T12:30:57;12.38;;;5.20;;
45254;SDS011;30989;52.078;21.014;2023-03-22T12:33:27;11.88;;;6.07;;
45254;SDS011;30989;52.078;21.014;2023-03-22T12:35:57;12.80;;;5.50;;
45254;SDS011;30989;52.078;21.014;2023-03-22T12:38:31;12.35;;;5.55;;
45254;SDS011;30989;52.078;21.014;2023-03-22T12:41:08;17.67;;;6.25;;
45254;SDS011;30989;52.078;21.014;2023-03-22T12:43:41;13.48;;;5.78;;
45254;SDS011;30989;52.078;21.014;2023-03-22T12:46:09;13.02;;;6.40;;
45254;SDS011;30989;52.078;21.014;2023-03-22T12:49:27;14.23;;;6.78;;
45254;SDS011;30989;52.078;21.014;2023-03-22T12:51:35;14.90;;;5.75;;
45254;SDS011;30989;52.078;21.014;2023-03-22T12:54:01;12.20;;;5.68;;
45254;SDS011;30989;52.078;21.014;2023-03-22T12:56:33;10.90;;;5.40;;
45254;SDS011;30989;52.078;21.014;2023-03-22T12:59:03;13.68;;;6.32;;
45254;SDS011;30989;52.078;21.014;2023-03-22T13:03:57;15.30;;;6.68;;
45254;SDS011;30989;52.078;21.014;2023-03-22T13:06:53;11.98;;;6.72;;
45254;SDS011;30989;52.078;21.014;2023-03-22T13:09:19;15.40;;;6.00;;
45254;SDS011;30989;52.078;21.014;2023-03-22T13:20:32;12.43;;;5.35;;
45254;SDS011;30989;52.078;21.014;2023-03-22T13:32:46;8.30;;;4.72;;
45254;SDS011;30989;52.078;21.014;2023-03-22T13:35:27;8.50;;;4.78;;
45254;SDS011;30989;52.078;21.014;2023-03-22T13:38:15;13.15;;;4.97;;
45254;SDS011;30989;52.078;21.014;2023-03-22T13:43:45;14.18;;;6.97;;
45254;SDS011;30989;52.078;21.014;2023-03-22T13:51:29;8.68;;;4.57;;
45254;SDS011;30989;52.078;21.014;2023-03-22T13:59:11;9.05;;;4.85;;
45254;SDS011;30989;52.078;21.014;2023-03-22T14:02:02;8.73;;;5.07;;
45254;SDS011;30989;52.078;21.014;2023-03-22T14:04:47;8.73;;;4.68;;
45254;SDS011;30989;52.078;21.014;2023-03-22T14:10:39;12.57;;;6.13;;
45254;SDS011;30989;52.078;21.014;2023-03-22T14:15:53;13.80;;;6.25;;
45254;SDS011;30989;52.078;21.014;2023-03-22T14:18:23;10.30;;;5.03;;
45254;SDS011;30989;52.078;21.014;2023-03-22T14:20:53;9.77;;;5.00;;
45254;SDS011;30989;52.078;21.014;2023-03-22T14:23:55;11.80;;;5.00;;
45254;SDS011;30989;52.078;21.014;2023-03-22T14:26:21;12.27;;;5.32;;
45254;SDS011;30989;52.078;21.014;2023-03-22T14:28:49;9.23;;;5.10;;
45254;SDS011;30989;52.078;21.014;2023-03-22T14:31:22;9.57;;;5.07;;
45254;SDS011;30989;52.078;21.014;2023-03-22T14:33:52;9.35;;;5.43;;
45254;SDS011;30989;52.078;21.014;2023-03-22T14:36:18;10.95;;;5.65;;
45254;SDS011;30989;52.078;21.014;2023-03-22T14:38:45;12.05;;;6.45;;
45254;SDS011;30989;52.078;21.014;2023-03-22T14:41:18;12.90;;;6.43;;
45254;SDS011;30989;52.078;21.014;2023-03-22T14:43:46;16.02;;;7.25;;
45254;SDS011;30989;52.078;21.014;2023-03-22T14:48:48;12.75;;;5.50;;
45254;SDS011;30989;52.078;21.014;2023-03-22T14:51:28;16.13;;;6.10;;
45254;SDS011;30989;52.078;21.014;2023-03-22T14:53:57;12.55;;;6.15;;
45254;SDS011;30989;52.078;21.014;2023-03-22T14:56:27;11.38;;;5.82;;
45254;SDS011;30989;52.078;21.014;2023-03-22T14:58:57;9.65;;;5.68;;
45254;SDS011;30989;52.078;21.014;2023-03-22T15:01:27;11.02;;;5.45;;
45254;SDS011;30989;52.078;21.014;2023-03-22T15:03:58;11.20;;;5.78;;
45254;SDS011;30989;52.078;21.014;2023-03-22T15:06:27;12.50;;;5.97;;
45254;SDS011;30989;52.078;21.014;2023-03-22T15:08:54;12.60;;;6.45;;
45254;SDS011;30989;52.078;21.014;2023-03-22T15:11:32;15.20;;;6.10;;
45254;SDS011;30989;52.078;21.014;2023-03-22T15:14:00;12.70;;;5.63;;
45254;SDS011;30989;52.078;21.014;2023-03-22T15:16:27;12.82;;;6.13;;
45254;SDS011;30989;52.078;21.014;2023-03-22T15:18:56;15.02;;;5.70;;
45254;SDS011;30989;52.078;21.014;2023-03-22T15:21:23;13.02;;;6.28;;
45254;SDS011;30989;52.078;21.014;2023-03-22T15:23:53;13.07;;;6.35;;
45254;SDS011;30989;52.078;21.014;2023-03-22T15:26:21;11.30;;;6.80;;
45254;SDS011;30989;52.078;21.014;2023-03-22T15:28:52;11.43;;;5.85;;
45254;SDS011;30989;52.078;21.014;2023-03-22T15:31:29;14.38;;;6.03;;
45254;SDS011;30989;52.078;21.014;2023-03-22T15:34:00;17.92;;;6.13;;
45254;SDS011;30989;52.078;21.014;2023-03-22T15:36:32;11.90;;;5.95;;
45254;SDS011;30989;52.078;21.014;2023-03-22T15:39:00;13.40;;;6.32;;
45254;SDS011;30989;52.078;21.014;2023-03-22T15:41:34;16.27;;;7.18;;
45254;SDS011;30989;52.078;21.014;2023-03-22T15:46:29;11.55;;;6.07;;
45254;SDS011;30989;52.078;21.014;2023-03-22T15:49:16;12.48;;;5.53;;
45254;SDS011;30989;52.078;21.014;2023-03-22T15:51:45;12.23;;;6.15;;
45254;SDS011;30989;52.078;21.014;2023-03-22T15:54:12;13.07;;;5.97;;
45254;SDS011;30989;52.078;21.014;2023-03-22T15:56:45;15.55;;;6.32;;
45254;SDS011;30989;52.078;21.014;2023-03-22T15:59:20;14.87;;;7.07;;
45254;SDS011;30989;52.078;21.014;2023-03-22T16:01:54;12.05;;;5.95;;
45254;SDS011;30989;52.078;21.014;2023-03-22T16:04:23;12.32;;;6.68;;
45254;SDS011;30989;52.078;21.014;2023-03-22T16:06:55;14.18;;;6.43;;
45254;SDS011;30989;52.078;21.014;2023-03-22T16:09:20;13.65;;;6.82;;
45254;SDS011;30989;52.078;21.014;2023-03-22T16:11:47;12.30;;;5.47;;
45254;SDS011;30989;52.078;21.014;2023-03-22T16:14:13;13.55;;;6.18;;
45254;SDS011;30989;52.078;21.014;2023-03-22T16:16:41;15.30;;;5.85;;
45254;SDS011;30989;52.078;21.014;2023-03-22T16:19:09;19.58;;;6.30;;
45254;SDS011;30989;52.078;21.014;2023-03-22T16:21:34;14.60;;;6.25;;
45254;SDS011;30989;52.078;21.014;2023-03-22T16:24:01;14.93;;;6.00;;
45254;SDS011;30989;52.078;21.014;2023-03-22T16:26:28;13.18;;;6.18;;
45254;SDS011;30989;52.078;21.014;2023-03-22T16:28:54;13.25;;;6.50;;
45254;SDS011;30989;52.078;21.014;2023-03-22T16:31:20;12.35;;;6.10;;
45254;SDS011;30989;52.078;21.014;2023-03-22T16:33:47;11.00;;;6.38;;
45254;SDS011;30989;52.078;21.014;2023-03-22T16:36:15;11.40;;;5.82;;
45254;SDS011;30989;52.078;21.014;2023-03-22T16:38:42;11.20;;;7.13;;
45254;SDS011;30989;52.078;21.014;2023-03-22T16:41:26;15.43;;;6.20;;
45254;SDS011;30989;52.078;21.014;2023-03-22T16:43:53;18.92;;;9.68;;